Range, Alabama
Current Conditions -  °F | °C
As of 11:53 AM on Friday 24 Oct 2014 (Local Time) from KGZH Reporting Station
Clear Clear  
Wind Chill: 74°   Ceiling: Unl
Heat Index: 74°   Visibility: 10mi
Dew Point: 45°   Wind: 5mph
Humidity: 35%   Direction: NA
Pressure: 30.07"   Gusts: NA
Location:  31.31°N, 87.23°W
Report Text: KGZH 241653Z AUTO VRB04KT 10SM CLR 23/07 A3007 RMK AO2 SLP182 T02330072
Loading
Personal Weather Stations






























Interactive Weather Map
Tropical Storm Tracking
New forecast layout! Learn more

10-Day Weather Forecast

Advertisements
Track Severe Weather on mobile